sensor_id;sensor_type;location;lat;lon;timestamp;pressure;altitude;pressure_sealevel;temperature;humidity
46876;BME280;32866;50.160;14.768;2023-03-15T00:00:09;98660.78;;;2.54;100.00
46876;BME280;32866;50.160;14.768;2023-03-15T00:02:36;98660.72;;;2.62;100.00
46876;BME280;32866;50.160;14.768;2023-03-15T00:05:02;98619.59;;;2.36;100.00
46876;BME280;32866;50.160;14.768;2023-03-15T00:07:27;98662.28;;;2.59;100.00
46876;BME280;32866;50.160;14.768;2023-03-15T00:09:52;98635.91;;;2.29;100.00
46876;BME280;32866;50.160;14.768;2023-03-15T00:12:18;98627.03;;;2.28;100.00
46876;BME280;32866;50.160;14.768;2023-03-15T00:14:43;98666.31;;;2.40;100.00
46876;BME280;32866;50.160;14.768;2023-03-15T00:17:09;98630.19;;;2.16;100.00
46876;BME280;32866;50.160;14.768;2023-03-15T00:19:35;98676.81;;;2.31;100.00
46876;BME280;32866;50.160;14.768;2023-03-15T00:22:01;98650.72;;;2.13;100.00
46876;BME280;32866;50.160;14.768;2023-03-15T00:24:26;98684.25;;;2.23;100.00
46876;BME280;32866;50.160;14.768;2023-03-15T00:26:52;98649.69;;;1.93;100.00
46876;BME280;32866;50.160;14.768;2023-03-15T00:29:17;98683.59;;;2.04;100.00
46876;BME280;32866;50.160;14.768;2023-03-15T00:31:42;98696.81;;;1.92;100.00
46876;BME280;32866;50.160;14.768;2023-03-15T00:34:08;98669.91;;;1.70;100.00
46876;BME280;32866;50.160;14.768;2023-03-15T00:36:33;98710.72;;;1.87;100.00
46876;BME280;32866;50.160;14.768;2023-03-15T00:38:58;98716.03;;;2.01;100.00
46876;BME280;32866;50.160;14.768;2023-03-15T00:41:24;98717.50;;;2.13;100.00
46876;BME280;32866;50.160;14.768;2023-03-15T00:43:50;98695.38;;;1.73;100.00
46876;BME280;32866;50.160;14.768;2023-03-15T00:46:17;98719.50;;;2.05;100.00
46876;BME280;32866;50.160;14.768;2023-03-15T00:48:46;98723.31;;;2.08;100.00
46876;BME280;32866;50.160;14.768;2023-03-15T00:51:15;98725.97;;;2.18;100.00
46876;BME280;32866;50.160;14.768;2023-03-15T00:53:42;98736.38;;;2.23;100.00
46876;BME280;32866;50.160;14.768;2023-03-15T00:56:19;98731.69;;;2.28;100.00
46876;BME280;32866;50.160;14.768;2023-03-15T00:58:45;98723.97;;;2.30;100.00
46876;BME280;32866;50.160;14.768;2023-03-15T01:01:22;98728.72;;;2.15;100.00
46876;BME280;32866;50.160;14.768;2023-03-15T01:03:49;98704.97;;;1.84;100.00
46876;BME280;32866;50.160;14.768;2023-03-15T01:06:20;98741.16;;;1.98;100.00
46876;BME280;32866;50.160;14.768;2023-03-15T01:08:46;98737.72;;;1.90;100.00
46876;BME280;32866;50.160;14.768;2023-03-15T01:11:15;98736.28;;;1.71;100.00
46876;BME280;32866;50.160;14.768;2023-03-15T01:13:40;98736.31;;;1.60;100.00
46876;BME280;32866;50.160;14.768;2023-03-15T01:16:07;98721.41;;;1.34;100.00
46876;BME280;32866;50.160;14.768;2023-03-15T01:18:33;98743.69;;;1.49;100.00
46876;BME280;32866;50.160;14.768;2023-03-15T01:20:58;98744.06;;;1.55;100.00
46876;BME280;32866;50.160;14.768;2023-03-15T01:23:24;98729.47;;;1.41;100.00
46876;BME280;32866;50.160;14.768;2023-03-15T01:25:49;98749.47;;;1.58;100.00
46876;BME280;32866;50.160;14.768;2023-03-15T01:28:15;98742.19;;;1.48;100.00
46876;BME280;32866;50.160;14.768;2023-03-15T01:30:48;98738.66;;;1.58;100.00
46876;BME280;32866;50.160;14.768;2023-03-15T01:33:13;98741.00;;;1.45;100.00
46876;BME280;32866;50.160;14.768;2023-03-15T01:35:39;98703.72;;;1.11;100.00
46876;BME280;32866;50.160;14.768;2023-03-15T01:38:04;98752.25;;;1.33;100.00
46876;BME280;32866;50.160;14.768;2023-03-15T01:40:30;98745.75;;;1.05;100.00
46876;BME280;32866;50.160;14.768;2023-03-15T01:48:41;98760.84;;;0.85;100.00
46876;BME280;32866;50.160;14.768;2023-03-15T01:51:12;98760.06;;;0.84;100.00
46876;BME280;32866;50.160;14.768;2023-03-15T01:53:42;98767.38;;;0.80;100.00
46876;BME280;32866;50.160;14.768;2023-03-15T01:56:10;98737.72;;;0.77;100.00
46876;BME280;32866;50.160;14.768;2023-03-15T01:58:37;98766.63;;;0.80;100.00
46876;BME280;32866;50.160;14.768;2023-03-15T02:01:05;98771.25;;;0.54;100.00
46876;BME280;32866;50.160;14.768;2023-03-15T02:03:35;98766.25;;;0.56;100.00
46876;BME280;32866;50.160;14.768;2023-03-15T02:06:06;98771.22;;;0.47;100.00
46876;BME280;32866;50.160;14.768;2023-03-15T02:08:37;98767.78;;;0.50;100.00
46876;BME280;32866;50.160;14.768;2023-03-15T02:11:03;98765.84;;;0.25;100.00
46876;BME280;32866;50.160;14.768;2023-03-15T02:13:30;98760.84;;;0.27;100.00
46876;BME280;32866;50.160;14.768;2023-03-15T02:15:57;98765.75;;;-0.04;100.00
46876;BME280;32866;50.160;14.768;2023-03-15T02:18:24;98754.22;;;-0.08;100.00
46876;BME280;32866;50.160;14.768;2023-03-15T02:21:01;98765.00;;;0.07;100.00
46876;BME280;32866;50.160;14.768;2023-03-15T02:23:29;98760.03;;;0.09;100.00
46876;BME280;32866;50.160;14.768;2023-03-15T02:28:55;98773.53;;;0.23;100.00
46876;BME280;32866;50.160;14.768;2023-03-15T02:31:20;98770.78;;;-0.06;100.00
46876;BME280;32866;50.160;14.768;2023-03-15T02:33:51;98767.31;;;-0.10;100.00
46876;BME280;32866;50.160;14.768;2023-03-15T02:36:21;98778.53;;;0.14;100.00
46876;BME280;32866;50.160;14.768;2023-03-15T02:38:48;98787.41;;;0.40;100.00
46876;BME280;32866;50.160;14.768;2023-03-15T02:41:17;98785.09;;;0.34;100.00
46876;BME280;32866;50.160;14.768;2023-03-15T02:43:44;98782.00;;;0.25;100.00
46876;BME280;32866;50.160;14.768;2023-03-15T02:46:12;98791.28;;;0.46;100.00
46876;BME280;32866;50.160;14.768;2023-03-15T02:48:40;98748.88;;;0.28;100.00
46876;BME280;32866;50.160;14.768;2023-03-15T02:51:06;98809.38;;;0.49;100.00
46876;BME280;32866;50.160;14.768;2023-03-15T02:53:32;98822.44;;;0.40;100.00
46876;BME280;32866;50.160;14.768;2023-03-15T02:55:58;98826.66;;;0.26;100.00
46876;BME280;32866;50.160;14.768;2023-03-15T02:58:24;98797.78;;;0.27;100.00
46876;BME280;32866;50.160;14.768;2023-03-15T03:00:51;98817.44;;;0.42;100.00
46876;BME280;32866;50.160;14.768;2023-03-15T03:03:17;98822.84;;;0.42;100.00
46876;BME280;32866;50.160;14.768;2023-03-15T03:05:42;98819.75;;;0.32;100.00
46876;BME280;32866;50.160;14.768;2023-03-15T03:08:07;98796.94;;;-0.10;100.00
46876;BME280;32866;50.160;14.768;2023-03-15T03:10:33;98811.13;;;-0.20;100.00
46876;BME280;32866;50.160;14.768;2023-03-15T03:12:58;98805.06;;;0.08;100.00
46876;BME280;32866;50.160;14.768;2023-03-15T03:15:23;98822.06;;;0.45;100.00
46876;BME280;32866;50.160;14.768;2023-03-15T03:17:49;98845.59;;;0.59;100.00
46876;BME280;32866;50.160;14.768;2023-03-15T03:20:14;98851.34;;;0.50;100.00
46876;BME280;32866;50.160;14.768;2023-03-15T03:22:40;98860.63;;;0.56;100.00
46876;BME280;32866;50.160;14.768;2023-03-15T03:25:09;98857.16;;;0.59;100.00
46876;BME280;32866;50.160;14.768;2023-03-15T03:27:35;98851.34;;;0.46;100.00
46876;BME280;32866;50.160;14.768;2023-03-15T03:30:11;98855.94;;;0.39;100.00
46876;BME280;32866;50.160;14.768;2023-03-15T03:32:41;98869.47;;;0.53;100.00
46876;BME280;32866;50.160;14.768;2023-03-15T03:35:07;98839.00;;;0.27;100.00
46876;BME280;32866;50.160;14.768;2023-03-15T03:37:33;98877.50;;;0.39;100.00
46876;BME280;32866;50.160;14.768;2023-03-15T03:40:00;98891.03;;;0.46;100.00
46876;BME280;32866;50.160;14.768;2023-03-15T03:42:25;98851.28;;;0.21;100.00
46876;BME280;32866;50.160;14.768;2023-03-15T03:44:50;98854.41;;;0.38;100.00
46876;BME280;32866;50.160;14.768;2023-03-15T03:47:19;98892.59;;;0.72;100.00
46876;BME280;32866;50.160;14.768;2023-03-15T03:49:44;98863.31;;;0.49;100.00
46876;BME280;32866;50.160;14.768;2023-03-15T03:52:09;98901.06;;;0.67;100.00
46876;BME280;32866;50.160;14.768;2023-03-15T03:54:35;98890.66;;;0.51;100.00
46876;BME280;32866;50.160;14.768;2023-03-15T03:57:00;98909.19;;;0.70;100.00
46876;BME280;32866;50.160;14.768;2023-03-15T03:59:25;98908.41;;;0.66;100.00
46876;BME280;32866;50.160;14.768;2023-03-15T04:01:51;98908.81;;;0.76;100.00
46876;BME280;32866;50.160;14.768;2023-03-15T04:04:16;98901.50;;;0.72;100.00
46876;BME280;32866;50.160;14.768;2023-03-15T04:06:42;98900.69;;;0.61;100.00
46876;BME280;32866;50.160;14.768;2023-03-15T04:09:14;98887.19;;;0.50;100.00
46876;BME280;32866;50.160;14.768;2023-03-15T04:11:41;98928.47;;;0.72;100.00
46876;BME280;32866;50.160;14.768;2023-03-15T04:14:08;98935.00;;;0.71;100.00
46876;BME280;32866;50.160;14.768;2023-03-15T04:16:33;98930.78;;;0.81;100.00
46876;BME280;32866;50.160;14.768;2023-03-15T04:18:59;98913.03;;;0.73;100.00
46876;BME280;32866;50.160;14.768;2023-03-15T04:21:24;98911.91;;;0.78;100.00
46876;BME280;32866;50.160;14.768;2023-03-15T04:23:49;98935.44;;;0.88;100.00
46876;BME280;32866;50.160;14.768;2023-03-15T04:26:15;98951.63;;;0.99;100.00
46876;BME280;32866;50.160;14.768;2023-03-15T04:28:40;98960.84;;;0.87;100.00
46876;BME280;32866;50.160;14.768;2023-03-15T04:31:08;98915.34;;;0.71;100.00
46876;BME280;32866;50.160;14.768;2023-03-15T04:33:34;98947.34;;;0.90;100.00
46876;BME280;32866;50.160;14.768;2023-03-15T04:36:00;98970.13;;;1.00;100.00
46876;BME280;32866;50.160;14.768;2023-03-15T04:38:27;98977.88;;;1.09;100.00
46876;BME280;32866;50.160;14.768;2023-03-15T04:40:53;98978.22;;;1.04;100.00
46876;BME280;32866;50.160;14.768;2023-03-15T04:43:19;98979.78;;;1.01;100.00
46876;BME280;32866;50.160;14.768;2023-03-15T04:45:45;98982.47;;;0.98;100.00
46876;BME280;32866;50.160;14.768;2023-03-15T04:48:10;98987.06;;;0.90;100.00
46876;BME280;32866;50.160;14.768;2023-03-15T04:50:35;98943.47;;;0.59;100.00
46876;BME280;32866;50.160;14.768;2023-03-15T04:53:01;98950.41;;;0.64;100.00
46876;BME280;32866;50.160;14.768;2023-03-15T04:55:26;98987.81;;;0.87;100.00
46876;BME280;32866;50.160;14.768;2023-03-15T04:57:52;98994.41;;;0.82;100.00
46876;BME280;32866;50.160;14.768;2023-03-15T05:00:17;98998.97;;;0.71;100.00
46876;BME280;32866;50.160;14.768;2023-03-15T05:02:43;98993.97;;;0.69;100.00
46876;BME280;32866;50.160;14.768;2023-03-15T05:05:10;98999.28;;;0.55;100.00
46876;BME280;32866;50.160;14.768;2023-03-15T05:07:36;99001.59;;;0.49;100.00
46876;BME280;32866;50.160;14.768;2023-03-15T05:10:01;98998.31;;;0.15;100.00
46876;BME280;32866;50.160;14.768;2023-03-15T05:12:27;99011.94;;;0.40;100.00
46876;BME280;32866;50.160;14.768;2023-03-15T05:14:53;99000.34;;;0.32;100.00
46876;BME280;32866;50.160;14.768;2023-03-15T05:17:18;99003.41;;;0.24;100.00
46876;BME280;32866;50.160;14.768;2023-03-15T05:19:44;98955.81;;;-0.17;100.00
46876;BME280;32866;50.160;14.768;2023-03-15T05:22:10;99008.34;;;0.18;100.00
46876;BME280;32866;50.160;14.768;2023-03-15T05:24:36;98991.25;;;-0.11;100.00
46876;BME280;32866;50.160;14.768;2023-03-15T05:27:01;98985.16;;;-0.05;100.00
46876;BME280;32866;50.160;14.768;2023-03-15T05:29:28;98999.69;;;-0.20;100.00
46876;BME280;32866;50.160;14.768;2023-03-15T05:31:54;99003.47;;;-0.28;100.00
46876;BME280;32866;50.160;14.768;2023-03-15T05:34:19;98997.63;;;-0.34;100.00
46876;BME280;32866;50.160;14.768;2023-03-15T05:36:51;99029.88;;;0.11;100.00
46876;BME280;32866;50.160;14.768;2023-03-15T05:39:17;99037.50;;;0.02;100.00
46876;BME280;32866;50.160;14.768;2023-03-15T05:41:43;99042.22;;;0.12;100.00
46876;BME280;32866;50.160;14.768;2023-03-15T05:44:08;99051.38;;;0.00;100.00
46876;BME280;32866;50.160;14.768;2023-03-15T05:46:34;99002.69;;;-0.25;100.00
46876;BME280;32866;50.160;14.768;2023-03-15T05:48:59;99048.63;;;-0.04;100.00
46876;BME280;32866;50.160;14.768;2023-03-15T05:51:25;99051.44;;;0.11;100.00
46876;BME280;32866;50.160;14.768;2023-03-15T05:53:50;99027.00;;;-0.18;100.00
46876;BME280;32866;50.160;14.768;2023-03-15T05:56:16;99036.66;;;-0.13;100.00
46876;BME280;32866;50.160;14.768;2023-03-15T05:58:41;99065.50;;;-0.14;100.00
46876;BME280;32866;50.160;14.768;2023-03-15T06:01:06;99085.22;;;-0.03;100.00
46876;BME280;32866;50.160;14.768;2023-03-15T06:03:32;99084.66;;;-0.26;100.00
46876;BME280;32866;50.160;14.768;2023-03-15T06:05:57;99106.06;;;0.08;100.00
46876;BME280;32866;50.160;14.768;2023-03-15T06:08:23;99108.63;;;0.42;100.00
46876;BME280;32866;50.160;14.768;2023-03-15T06:10:49;99110.94;;;0.47;100.00
46876;BME280;32866;50.160;14.768;2023-03-15T06:13:14;99112.50;;;0.44;100.00
46876;BME280;32866;50.160;14.768;2023-03-15T06:15:40;99126.28;;;0.32;100.00
46876;BME280;32866;50.160;14.768;2023-03-15T06:18:05;99101.38;;;-0.03;100.00
46876;BME280;32866;50.160;14.768;2023-03-15T06:20:31;99141.66;;;0.28;100.00
46876;BME280;32866;50.160;14.768;2023-03-15T06:22:57;99129.34;;;0.30;100.00
46876;BME280;32866;50.160;14.768;2023-03-15T06:25:22;99146.72;;;0.40;100.00
46876;BME280;32866;50.160;14.768;2023-03-15T06:27:48;99127.00;;;0.25;100.00
46876;BME280;32866;50.160;14.768;2023-03-15T06:30:14;99156.53;;;0.63;100.00
46876;BME280;32866;50.160;14.768;2023-03-15T06:32:39;99158.59;;;0.87;100.00
46876;BME280;32866;50.160;14.768;2023-03-15T06:35:05;99164.16;;;1.27;100.00
46876;BME280;32866;50.160;14.768;2023-03-15T06:37:31;99161.19;;;1.68;100.00
46876;BME280;32866;50.160;14.768;2023-03-15T06:39:56;99184.41;;;2.63;100.00
46876;BME280;32866;50.160;14.768;2023-03-15T06:42:22;99183.84;;;3.29;100.00
46876;BME280;32866;50.160;14.768;2023-03-15T06:44:47;99187.28;;;3.44;100.00
46876;BME280;32866;50.160;14.768;2023-03-15T06:47:13;99170.81;;;2.91;100.00
46876;BME280;32866;50.160;14.768;2023-03-15T06:49:38;99161.63;;;2.24;100.00
46876;BME280;32866;50.160;14.768;2023-03-15T06:52:05;99160.50;;;2.18;100.00
46876;BME280;32866;50.160;14.768;2023-03-15T06:54:31;99190.78;;;3.37;100.00
46876;BME280;32866;50.160;14.768;2023-03-15T06:56:56;99199.34;;;3.99;100.00
46876;BME280;32866;50.160;14.768;2023-03-15T06:59:22;99201.69;;;3.97;100.00
46876;BME280;32866;50.160;14.768;2023-03-15T07:01:47;99178.72;;;3.49;100.00
46876;BME280;32866;50.160;14.768;2023-03-15T07:04:13;99178.44;;;3.22;100.00
46876;BME280;32866;50.160;14.768;2023-03-15T07:06:38;99193.53;;;4.00;100.00
46876;BME280;32866;50.160;14.768;2023-03-15T07:09:04;99213.28;;;4.01;100.00
46876;BME280;32866;50.160;14.768;2023-03-15T07:11:30;99208.31;;;3.88;100.00
46876;BME280;32866;50.160;14.768;2023-03-15T07:13:55;99190.53;;;3.80;100.00
46876;BME280;32866;50.160;14.768;2023-03-15T07:16:21;99218.88;;;4.32;100.00
46876;BME280;32866;50.160;14.768;2023-03-15T07:18:46;99227.59;;;4.99;100.00
46876;BME280;32866;50.160;14.768;2023-03-15T07:21:11;99230.53;;;5.15;100.00
46876;BME280;32866;50.160;14.768;2023-03-15T07:23:37;99229.91;;;5.69;100.00
46876;BME280;32866;50.160;14.768;2023-03-15T07:26:02;99225.69;;;5.95;100.00
46876;BME280;32866;50.160;14.768;2023-03-15T07:28:28;99226.41;;;6.00;100.00
46876;BME280;32866;50.160;14.768;2023-03-15T07:30:59;99246.13;;;5.76;100.00
46876;BME280;32866;50.160;14.768;2023-03-15T07:33:26;99239.38;;;6.66;100.00
46876;BME280;32866;50.160;14.768;2023-03-15T07:35:52;99246.34;;;7.15;100.00
46876;BME280;32866;50.160;14.768;2023-03-15T07:38:18;99227.38;;;8.04;100.00
46876;BME280;32866;50.160;14.768;2023-03-15T07:40:44;99239.34;;;9.51;100.00
46876;BME280;32866;50.160;14.768;2023-03-15T07:43:09;99219.97;;;9.58;98.80
46876;BME280;32866;50.160;14.768;2023-03-15T07:45:35;99240.91;;;9.78;86.81
46876;BME280;32866;50.160;14.768;2023-03-15T07:48:00;99219.97;;;9.16;84.96
46876;BME280;32866;50.160;14.768;2023-03-15T07:50:26;99240.91;;;8.77;88.82
46876;BME280;32866;50.160;14.768;2023-03-15T07:52:51;99234.59;;;8.80;90.29
46876;BME280;32866;50.160;14.768;2023-03-15T07:55:17;99249.34;;;8.83;89.65
46876;BME280;32866;50.160;14.768;2023-03-15T07:57:42;99247.03;;;9.27;85.68
46876;BME280;32866;50.160;14.768;2023-03-15T08:00:08;99237.53;;;9.32;85.99
46876;BME280;32866;50.160;14.768;2023-03-15T08:02:36;99216.63;;;7.97;88.87
46876;BME280;32866;50.160;14.768;2023-03-15T08:05:01;99242.69;;;9.13;84.76
46876;BME280;32866;50.160;14.768;2023-03-15T08:07:28;99262.56;;;9.01;82.65
46876;BME280;32866;50.160;14.768;2023-03-15T08:09:54;99238.38;;;8.99;85.76
46876;BME280;32866;50.160;14.768;2023-03-15T08:12:19;99253.97;;;9.99;78.64
46876;BME280;32866;50.160;14.768;2023-03-15T08:14:45;99250.47;;;8.52;81.88
46876;BME280;32866;50.160;14.768;2023-03-15T08:17:10;99220.00;;;8.70;78.82
46876;BME280;32866;50.160;14.768;2023-03-15T08:19:38;99247.88;;;8.29;75.16
46876;BME280;32866;50.160;14.768;2023-03-15T08:22:03;99245.59;;;9.22;72.62
46876;BME280;32866;50.160;14.768;2023-03-15T08:24:29;99234.88;;;9.70;69.06
46876;BME280;32866;50.160;14.768;2023-03-15T08:26:55;99245.94;;;9.66;68.08
46876;BME280;32866;50.160;14.768;2023-03-15T08:29:20;99249.72;;;8.68;64.19
46876;BME280;32866;50.160;14.768;2023-03-15T08:31:45;99227.59;;;8.63;71.11
46876;BME280;32866;50.160;14.768;2023-03-15T08:34:11;99216.09;;;9.01;65.05
46876;BME280;32866;50.160;14.768;2023-03-15T08:36:36;99234.97;;;9.66;62.52
46876;BME280;32866;50.160;14.768;2023-03-15T08:39:02;99259.31;;;9.06;57.65
46876;BME280;32866;50.160;14.768;2023-03-15T08:41:29;99246.78;;;9.51;56.50
46876;BME280;32866;50.160;14.768;2023-03-15T08:43:55;99260.66;;;10.24;48.32
46876;BME280;32866;50.160;14.768;2023-03-15T08:46:20;99265.28;;;9.59;48.63
46876;BME280;32866;50.160;14.768;2023-03-15T08:48:46;99268.28;;;7.88;53.06
46876;BME280;32866;50.160;14.768;2023-03-15T08:51:11;99246.34;;;8.11;53.80
46876;BME280;32866;50.160;14.768;2023-03-15T08:53:37;99266.47;;;9.00;54.00
46876;BME280;32866;50.160;14.768;2023-03-15T08:56:03;99282.56;;;10.11;51.15
46876;BME280;32866;50.160;14.768;2023-03-15T08:58:29;99241.94;;;9.42;52.36
46876;BME280;32866;50.160;14.768;2023-03-15T09:00:54;99266.91;;;9.44;49.64
46876;BME280;32866;50.160;14.768;2023-03-15T09:03:21;99264.28;;;10.34;50.29
46876;BME280;32866;50.160;14.768;2023-03-15T09:05:47;99266.94;;;10.37;53.03
46876;BME280;32866;50.160;14.768;2023-03-15T09:08:12;99264.41;;;9.20;51.59
46876;BME280;32866;50.160;14.768;2023-03-15T09:10:38;99278.16;;;9.88;52.27
46876;BME280;32866;50.160;14.768;2023-03-15T09:13:03;99257.69;;;9.93;49.76
46876;BME280;32866;50.160;14.768;2023-03-15T09:15:29;99243.69;;;9.36;48.63
46876;BME280;32866;50.160;14.768;2023-03-15T09:17:54;99287.03;;;9.21;49.69
46876;BME280;32866;50.160;14.768;2023-03-15T09:20:20;99285.03;;;8.76;55.28
46876;BME280;32866;50.160;14.768;2023-03-15T09:22:55;99281.97;;;9.36;52.74
46876;BME280;32866;50.160;14.768;2023-03-15T09:25:22;99290.28;;;9.45;49.51
46876;BME280;32866;50.160;14.768;2023-03-15T09:27:48;99275.84;;;9.87;48.67
46876;BME280;32866;50.160;14.768;2023-03-15T09:30:14;99290.56;;;9.05;52.48
46876;BME280;32866;50.160;14.768;2023-03-15T09:32:39;99287.41;;;8.41;53.46
46876;BME280;32866;50.160;14.768;2023-03-15T09:35:07;99283.97;;;10.03;50.41
46876;BME280;32866;50.160;14.768;2023-03-15T09:37:33;99279.03;;;11.67;46.41
46876;BME280;32866;50.160;14.768;2023-03-15T09:39:59;99281.00;;;11.44;41.81
46876;BME280;32866;50.160;14.768;2023-03-15T09:45:36;99253.16;;;12.40;42.46
46876;BME280;32866;50.160;14.768;2023-03-15T09:53:31;99233.78;;;11.05;41.83
46876;BME280;32866;50.160;14.768;2023-03-15T09:55:58;99268.31;;;11.38;44.00
46876;BME280;32866;50.160;14.768;2023-03-15T09:58:29;99267.69;;;12.09;42.79
46876;BME280;32866;50.160;14.768;2023-03-15T10:01:07;99271.22;;;12.59;40.28
46876;BME280;32866;50.160;14.768;2023-03-15T10:08:37;99238.97;;;13.80;38.94
46876;BME280;32866;50.160;14.768;2023-03-15T10:16:53;99276.16;;;14.61;36.47
46876;BME280;32866;50.160;14.768;2023-03-15T10:19:31;99283.09;;;14.23;37.00
46876;BME280;32866;50.160;14.768;2023-03-15T10:27:36;99267.47;;;14.53;34.96
46876;BME280;32866;50.160;14.768;2023-03-15T10:30:16;99281.13;;;14.47;35.01
46876;BME280;32866;50.160;14.768;2023-03-15T10:32:43;99271.97;;;14.08;35.21
46876;BME280;32866;50.160;14.768;2023-03-15T10:35:14;99269.78;;;13.14;35.65
46876;BME280;32866;50.160;14.768;2023-03-15T10:37:40;99272.19;;;11.49;38.72
46876;BME280;32866;50.160;14.768;2023-03-15T10:40:06;99284.53;;;10.11;40.34
46876;BME280;32866;50.160;14.768;2023-03-15T10:42:39;99287.22;;;9.43;41.24
46876;BME280;32866;50.160;14.768;2023-03-15T10:45:21;99257.03;;;10.01;42.65
46876;BME280;32866;50.160;14.768;2023-03-15T10:47:48;99270.09;;;13.44;36.73
46876;BME280;32866;50.160;14.768;2023-03-15T10:50:25;99276.44;;;12.67;38.51
46876;BME280;32866;50.160;14.768;2023-03-15T10:52:54;99273.81;;;12.54;36.38
46876;BME280;32866;50.160;14.768;2023-03-15T10:55:31;99280.63;;;11.77;36.33
46876;BME280;32866;50.160;14.768;2023-03-15T10:58:10;99279.28;;;10.55;40.98
46876;BME280;32866;50.160;14.768;2023-03-15T11:00:36;99253.31;;;9.82;40.68
46876;BME280;32866;50.160;14.768;2023-03-15T11:03:05;99284.38;;;9.34;43.57
46876;BME280;32866;50.160;14.768;2023-03-15T11:05:40;99273.13;;;11.46;41.35
46876;BME280;32866;50.160;14.768;2023-03-15T11:08:14;99236.94;;;13.47;37.48
46876;BME280;32866;50.160;14.768;2023-03-15T11:10:40;99239.91;;;14.20;35.74
46876;BME280;32866;50.160;14.768;2023-03-15T11:13:18;99237.50;;;15.48;34.04
46876;BME280;32866;50.160;14.768;2023-03-15T11:15:58;99246.72;;;14.00;33.35
46876;BME280;32866;50.160;14.768;2023-03-15T11:18:33;99241.47;;;11.55;38.19
46876;BME280;32866;50.160;14.768;2023-03-15T11:21:02;99263.22;;;10.92;40.50
46876;BME280;32866;50.160;14.768;2023-03-15T11:23:34;99264.16;;;10.63;40.47
46876;BME280;32866;50.160;14.768;2023-03-15T11:26:00;99228.66;;;10.60;41.45
46876;BME280;32866;50.160;14.768;2023-03-15T11:28:28;99265.25;;;10.14;42.46
46876;BME280;32866;50.160;14.768;2023-03-15T11:30:57;99259.03;;;9.46;43.61
46876;BME280;32866;50.160;14.768;2023-03-15T11:33:57;99254.91;;;8.63;45.72
46876;BME280;32866;50.160;14.768;2023-03-15T11:36:29;99240.38;;;8.16;46.10
46876;BME280;32866;50.160;14.768;2023-03-15T11:38:58;99254.72;;;8.37;48.50
46876;BME280;32866;50.160;14.768;2023-03-15T11:44:12;99247.66;;;7.87;48.50
46876;BME280;32866;50.160;14.768;2023-03-15T11:46:49;99221.44;;;7.73;50.78
46876;BME280;32866;50.160;14.768;2023-03-15T11:51:55;99238.66;;;8.23;49.35
46876;BME280;32866;50.160;14.768;2023-03-15T11:54:21;99238.16;;;8.11;51.62
46876;BME280;32866;50.160;14.768;2023-03-15T11:57:03;99231.59;;;8.25;50.54
46876;BME280;32866;50.160;14.768;2023-03-15T11:59:36;99233.41;;;7.95;51.70
46876;BME280;32866;50.160;14.768;2023-03-15T12:02:33;99236.53;;;7.77;51.74
46876;BME280;32866;50.160;14.768;2023-03-15T12:04:54;99237.41;;;7.74;51.46
46876;BME280;32866;50.160;14.768;2023-03-15T12:09:54;99235.72;;;7.60;55.82
46876;BME280;32866;50.160;14.768;2023-03-15T12:17:53;99219.06;;;8.61;50.82
46876;BME280;32866;50.160;14.768;2023-03-15T12:20:41;99232.44;;;8.88;51.47
46876;BME280;32866;50.160;14.768;2023-03-15T12:26:07;99228.91;;;7.69;52.94
46876;BME280;32866;50.160;14.768;2023-03-15T12:28:37;99225.19;;;7.22;54.11
46876;BME280;32866;50.160;14.768;2023-03-15T12:31:09;99224.59;;;7.11;54.50
46876;BME280;32866;50.160;14.768;2023-03-15T12:33:49;99218.00;;;6.88;55.96
46876;BME280;32866;50.160;14.768;2023-03-15T12:36:36;99207.03;;;6.72;58.65
46876;BME280;32866;50.160;14.768;2023-03-15T12:41:49;99237.25;;;6.30;60.91
46876;BME280;32866;50.160;14.768;2023-03-15T12:47:00;99237.19;;;5.45;82.46
46876;BME280;32866;50.160;14.768;2023-03-15T12:55:11;99294.38;;;4.48;100.00
46876;BME280;32866;50.160;14.768;2023-03-15T12:57:36;99297.28;;;4.71;100.00
46876;BME280;32866;50.160;14.768;2023-03-15T13:00:12;99288.22;;;4.36;100.00
46876;BME280;32866;50.160;14.768;2023-03-15T13:02:49;99283.31;;;4.17;100.00
46876;BME280;32866;50.160;14.768;2023-03-15T13:05:27;99272.06;;;4.18;100.00
46876;BME280;32866;50.160;14.768;2023-03-15T13:08:14;99298.81;;;4.72;100.00
46876;BME280;32866;50.160;14.768;2023-03-15T13:10:52;99301.91;;;5.19;100.00
46876;BME280;32866;50.160;14.768;2023-03-15T13:21:33;99265.31;;;5.28;100.00
46876;BME280;32866;50.160;14.768;2023-03-15T13:24:00;99304.75;;;5.47;100.00
46876;BME280;32866;50.160;14.768;2023-03-15T13:26:34;99306.53;;;5.61;100.00
46876;BME280;32866;50.160;14.768;2023-03-15T13:31:32;99296.78;;;9.22;80.67
46876;BME280;32866;50.160;14.768;2023-03-15T13:34:16;99293.03;;;8.33;74.97
46876;BME280;32866;50.160;14.768;2023-03-15T13:36:49;99267.19;;;7.65;76.54
46876;BME280;32866;50.160;14.768;2023-03-15T13:39:21;99300.94;;;7.31;76.68
46876;BME280;32866;50.160;14.768;2023-03-15T13:41:48;99304.34;;;7.35;76.02
46876;BME280;32866;50.160;14.768;2023-03-15T13:44:20;99314.44;;;7.38;75.22
46876;BME280;32866;50.160;14.768;2023-03-15T13:46:47;99309.19;;;7.28;74.30
46876;BME280;32866;50.160;14.768;2023-03-15T13:49:13;99304.09;;;7.06;77.86
46876;BME280;32866;50.160;14.768;2023-03-15T13:51:39;99316.03;;;6.65;83.73
46876;BME280;32866;50.160;14.768;2023-03-15T13:54:24;99316.56;;;6.02;90.66
46876;BME280;32866;50.160;14.768;2023-03-15T13:56:55;99328.84;;;5.45;94.42
46876;BME280;32866;50.160;14.768;2023-03-15T13:59:25;99325.25;;;5.13;99.32
46876;BME280;32866;50.160;14.768;2023-03-15T14:01:51;99321.50;;;5.00;100.00
46876;BME280;32866;50.160;14.768;2023-03-15T14:04:19;99324.69;;;4.88;100.00
46876;BME280;32866;50.160;14.768;2023-03-15T14:06:47;99321.88;;;4.50;100.00